sensor_id;sensor_type;location;lat;lon;timestamp;pressure;altitude;pressure_sealevel;temperature;humidity
78741;BME280;68062;48.726;9.370;2023-05-15T00:00:39;98339.94;;;9.31;100.00
78741;BME280;68062;48.726;9.370;2023-05-15T00:03:06;98335.72;;;9.11;100.00
78741;BME280;68062;48.726;9.370;2023-05-15T00:05:33;98336.66;;;8.83;100.00
78741;BME280;68062;48.726;9.370;2023-05-15T00:08:00;98340.94;;;8.74;100.00
78741;BME280;68062;48.726;9.370;2023-05-15T00:10:27;98342.63;;;8.48;100.00
78741;BME280;68062;48.726;9.370;2023-05-15T00:12:55;98340.06;;;8.75;100.00
78741;BME280;68062;48.726;9.370;2023-05-15T00:15:22;98343.50;;;8.58;100.00
78741;BME280;68062;48.726;9.370;2023-05-15T00:17:49;98345.22;;;8.70;100.00
78741;BME280;68062;48.726;9.370;2023-05-15T00:20:15;98345.22;;;8.61;100.00
78741;BME280;68062;48.726;9.370;2023-05-15T00:22:42;98344.38;;;8.71;100.00
78741;BME280;68062;48.726;9.370;2023-05-15T00:25:09;98335.75;;;8.98;100.00
78741;BME280;68062;48.726;9.370;2023-05-15T00:27:35;98328.06;;;9.05;100.00
78741;BME280;68062;48.726;9.370;2023-05-15T00:30:04;98333.19;;;9.12;100.00
78741;BME280;68062;48.726;9.370;2023-05-15T00:32:31;98334.84;;;9.18;100.00
78741;BME280;68062;48.726;9.370;2023-05-15T00:34:58;98332.28;;;9.18;100.00
78741;BME280;68062;48.726;9.370;2023-05-15T00:37:25;98329.78;;;8.98;100.00
78741;BME280;68062;48.726;9.370;2023-05-15T00:39:52;98322.13;;;8.76;100.00
78741;BME280;68062;48.726;9.370;2023-05-15T00:42:19;98327.25;;;8.76;100.00
78741;BME280;68062;48.726;9.370;2023-05-15T00:44:46;98322.16;;;8.61;100.00
78741;BME280;68062;48.726;9.370;2023-05-15T00:47:17;98326.41;;;8.68;100.00
78741;BME280;68062;48.726;9.370;2023-05-15T00:49:46;98321.25;;;8.85;100.00
78741;BME280;68062;48.726;9.370;2023-05-15T00:52:13;98318.66;;;9.08;100.00
78741;BME280;68062;48.726;9.370;2023-05-15T00:54:41;98318.66;;;9.05;100.00
78741;BME280;68062;48.726;9.370;2023-05-15T00:57:08;98319.53;;;8.84;100.00
78741;BME280;68062;48.726;9.370;2023-05-15T00:59:36;98317.84;;;8.77;100.00
78741;BME280;68062;48.726;9.370;2023-05-15T01:02:04;98322.13;;;8.81;100.00
78741;BME280;68062;48.726;9.370;2023-05-15T01:04:33;98320.41;;;8.85;100.00
78741;BME280;68062;48.726;9.370;2023-05-15T01:07:00;98328.06;;;9.09;100.00
78741;BME280;68062;48.726;9.370;2023-05-15T01:09:28;98319.34;;;9.41;100.00
78741;BME280;68062;48.726;9.370;2023-05-15T01:11:57;98321.03;;;9.53;100.00
78741;BME280;68062;48.726;9.370;2023-05-15T01:14:24;98327.88;;;9.54;100.00
78741;BME280;68062;48.726;9.370;2023-05-15T01:16:51;98327.94;;;9.42;100.00
78741;BME280;68062;48.726;9.370;2023-05-15T01:19:18;98322.78;;;9.37;100.00
78741;BME280;68062;48.726;9.370;2023-05-15T01:25:34;98322.78;;;9.40;100.00
78741;BME280;68062;48.726;9.370;2023-05-15T01:28:08;98313.41;;;9.33;100.00
78741;BME280;68062;48.726;9.370;2023-05-15T01:30:39;98316.78;;;9.46;100.00
78741;BME280;68062;48.726;9.370;2023-05-15T01:33:14;98321.97;;;9.32;100.00
78741;BME280;68062;48.726;9.370;2023-05-15T01:35:46;98316.88;;;9.24;100.00
78741;BME280;68062;48.726;9.370;2023-05-15T01:38:18;98315.19;;;9.20;100.00
78741;BME280;68062;48.726;9.370;2023-05-15T01:40:56;98317.78;;;9.16;100.00
78741;BME280;68062;48.726;9.370;2023-05-15T01:43:28;98329.72;;;9.20;100.00
78741;BME280;68062;48.726;9.370;2023-05-15T01:45:57;98321.97;;;9.34;100.00
78741;BME280;68062;48.726;9.370;2023-05-15T01:48:25;98327.16;;;9.20;100.00
78741;BME280;68062;48.726;9.370;2023-05-15T01:50:58;98324.59;;;9.12;100.00
78741;BME280;68062;48.726;9.370;2023-05-15T01:53:27;98316.09;;;9.04;100.00
78741;BME280;68062;48.726;9.370;2023-05-15T01:55:56;98320.25;;;9.31;100.00
78741;BME280;68062;48.726;9.370;2023-05-15T01:58:27;98333.16;;;9.17;100.00
78741;BME280;68062;48.726;9.370;2023-05-15T02:00:53;98328.03;;;9.16;100.00
78741;BME280;68062;48.726;9.370;2023-05-15T02:03:21;98321.91;;;9.49;100.00
78741;BME280;68062;48.726;9.370;2023-05-15T02:05:49;98318.38;;;9.69;100.00
78741;BME280;68062;48.726;9.370;2023-05-15T02:08:19;98320.97;;;9.69;100.00
78741;BME280;68062;48.726;9.370;2023-05-15T02:10:46;98318.47;;;9.53;100.00
78741;BME280;68062;48.726;9.370;2023-05-15T02:13:14;98323.66;;;9.36;100.00
78741;BME280;68062;48.726;9.370;2023-05-15T02:15:43;98323.69;;;9.28;100.00
78741;BME280;68062;48.726;9.370;2023-05-15T02:18:12;98319.47;;;9.23;100.00
78741;BME280;68062;48.726;9.370;2023-05-15T02:20:39;98324.56;;;9.24;100.00
78741;BME280;68062;48.726;9.370;2023-05-15T02:23:06;98319.44;;;9.24;100.00
78741;BME280;68062;48.726;9.370;2023-05-15T02:25:37;98322.88;;;9.25;100.00
78741;BME280;68062;48.726;9.370;2023-05-15T02:28:14;98315.91;;;9.49;100.00
78741;BME280;68062;48.726;9.370;2023-05-15T02:30:48;98319.38;;;9.43;100.00
78741;BME280;68062;48.726;9.370;2023-05-15T02:33:25;98319.41;;;9.34;100.00
78741;BME280;68062;48.726;9.370;2023-05-15T02:35:57;98326.28;;;9.27;100.00
78741;BME280;68062;48.726;9.370;2023-05-15T02:38:28;98320.25;;;9.28;100.00
78741;BME280;68062;48.726;9.370;2023-05-15T02:40:56;98326.22;;;9.38;100.00
78741;BME280;68062;48.726;9.370;2023-05-15T02:43:24;98318.63;;;9.21;100.00
78741;BME280;68062;48.726;9.370;2023-05-15T02:45:53;98325.38;;;9.36;100.00
78741;BME280;68062;48.726;9.370;2023-05-15T02:48:21;98309.13;;;9.32;100.00
78741;BME280;68062;48.726;9.370;2023-05-15T02:50:48;98311.66;;;9.43;100.00
78741;BME280;68062;48.726;9.370;2023-05-15T02:53:16;98303.97;;;9.43;100.00
78741;BME280;68062;48.726;9.370;2023-05-15T02:55:43;98316.03;;;9.27;100.00
78741;BME280;68062;48.726;9.370;2023-05-15T02:58:10;98326.34;;;9.07;100.00
78741;BME280;68062;48.726;9.370;2023-05-15T03:00:37;98323.78;;;9.04;100.00
78741;BME280;68062;48.726;9.370;2023-05-15T03:03:05;98316.78;;;9.41;100.00
78741;BME280;68062;48.726;9.370;2023-05-15T03:05:31;98315.03;;;9.54;100.00
78741;BME280;68062;48.726;9.370;2023-05-15T03:07:59;98318.38;;;9.69;100.00
78741;BME280;68062;48.726;9.370;2023-05-15T03:10:25;98320.94;;;9.72;100.00
78741;BME280;68062;48.726;9.370;2023-05-15T03:12:54;98282.56;;;9.47;100.00
78741;BME280;68062;48.726;9.370;2023-05-15T03:15:22;98327.75;;;9.75;100.00
78741;BME280;68062;48.726;9.370;2023-05-15T03:17:49;98309.81;;;9.73;100.00
78741;BME280;68062;48.726;9.370;2023-05-15T03:20:17;98319.25;;;9.65;100.00
78741;BME280;68062;48.726;9.370;2023-05-15T03:22:43;98315.03;;;9.57;100.00
78741;BME280;68062;48.726;9.370;2023-05-15T03:25:10;98309.19;;;9.24;100.00
78741;BME280;68062;48.726;9.370;2023-05-15T03:27:37;98316.91;;;9.12;100.00
78741;BME280;68062;48.726;9.370;2023-05-15T03:30:05;98316.09;;;9.08;100.00
78741;BME280;68062;48.726;9.370;2023-05-15T03:32:31;98309.19;;;9.23;100.00
78741;BME280;68062;48.726;9.370;2023-05-15T03:34:58;98308.28;;;9.30;100.00
78741;BME280;68062;48.726;9.370;2023-05-15T03:37:26;98313.50;;;9.13;100.00
78741;BME280;68062;48.726;9.370;2023-05-15T03:39:54;98311.78;;;9.15;100.00
78741;BME280;68062;48.726;9.370;2023-05-15T03:42:20;98310.88;;;9.28;100.00
78741;BME280;68062;48.726;9.370;2023-05-15T03:44:49;98320.19;;;9.47;100.00
78741;BME280;68062;48.726;9.370;2023-05-15T03:47:17;98323.56;;;9.60;100.00
78741;BME280;68062;48.726;9.370;2023-05-15T03:49:44;98315.03;;;9.54;100.00
78741;BME280;68062;48.726;9.370;2023-05-15T03:52:11;98320.97;;;9.61;100.00
78741;BME280;68062;48.726;9.370;2023-05-15T03:54:39;98324.50;;;9.46;100.00
78741;BME280;68062;48.726;9.370;2023-05-15T03:57:06;98320.28;;;9.26;100.00
78741;BME280;68062;48.726;9.370;2023-05-15T03:59:33;98320.28;;;9.26;100.00
78741;BME280;68062;48.726;9.370;2023-05-15T04:01:59;98315.22;;;9.06;100.00
78741;BME280;68062;48.726;9.370;2023-05-15T04:04:26;98315.97;;;9.30;100.00
78741;BME280;68062;48.726;9.370;2023-05-15T04:06:53;98309.19;;;9.24;100.00
78741;BME280;68062;48.726;9.370;2023-05-15T04:09:19;98314.34;;;9.17;100.00
78741;BME280;68062;48.726;9.370;2023-05-15T04:11:47;98316.94;;;9.07;100.00
78741;BME280;68062;48.726;9.370;2023-05-15T04:14:14;98324.59;;;9.12;100.00
78741;BME280;68062;48.726;9.370;2023-05-15T04:16:41;98312.63;;;9.19;100.00
78741;BME280;68062;48.726;9.370;2023-05-15T04:19:07;98299.81;;;9.12;100.00
78741;BME280;68062;48.726;9.370;2023-05-15T04:21:34;98306.56;;;9.35;100.00
78741;BME280;68062;48.726;9.370;2023-05-15T04:24:01;98314.28;;;9.29;100.00
78741;BME280;68062;48.726;9.370;2023-05-15T04:26:28;98310.72;;;9.61;100.00
78741;BME280;68062;48.726;9.370;2023-05-15T04:28:57;98322.56;;;9.87;100.00
78741;BME280;68062;48.726;9.370;2023-05-15T04:31:24;98325.81;;;10.12;100.00
78741;BME280;68062;48.726;9.370;2023-05-15T04:33:51;98318.84;;;10.30;100.00
78741;BME280;68062;48.726;9.370;2023-05-15T04:36:17;98318.72;;;10.52;100.00
78741;BME280;68062;48.726;9.370;2023-05-15T04:38:45;98321.16;;;10.63;100.00
78741;BME280;68062;48.726;9.370;2023-05-15T04:41:11;98314.25;;;10.68;100.00
78741;BME280;68062;48.726;9.370;2023-05-15T04:43:38;98318.41;;;10.81;100.00
78741;BME280;68062;48.726;9.370;2023-05-15T04:46:06;98316.69;;;10.82;100.00
78741;BME280;68062;48.726;9.370;2023-05-15T04:48:33;98312.31;;;10.90;100.00
78741;BME280;68062;48.726;9.370;2023-05-15T04:51:00;98325.84;;;11.08;100.00
78741;BME280;68062;48.726;9.370;2023-05-15T04:53:26;98334.50;;;11.00;100.00
78741;BME280;68062;48.726;9.370;2023-05-15T04:55:53;98335.94;;;11.26;100.00
78741;BME280;68062;48.726;9.370;2023-05-15T04:58:19;98335.75;;;11.43;100.00
78741;BME280;68062;48.726;9.370;2023-05-15T05:00:46;98337.44;;;11.46;100.00
78741;BME280;68062;48.726;9.370;2023-05-15T05:03:16;98333.72;;;11.70;100.00
78741;BME280;68062;48.726;9.370;2023-05-15T05:05:43;98341.03;;;11.34;100.00
78741;BME280;68062;48.726;9.370;2023-05-15T05:08:09;98340.72;;;11.57;100.00
78741;BME280;68062;48.726;9.370;2023-05-15T05:10:36;98350.50;;;11.96;99.30
78741;BME280;68062;48.726;9.370;2023-05-15T05:13:02;98341.78;;;12.06;97.32
78741;BME280;68062;48.726;9.370;2023-05-15T05:15:29;98342.06;;;11.86;97.34
78741;BME280;68062;48.726;9.370;2023-05-15T05:17:55;98347.41;;;11.71;100.00
78741;BME280;68062;48.726;9.370;2023-05-15T05:20:23;98347.00;;;12.03;99.16
78741;BME280;68062;48.726;9.370;2023-05-15T05:22:50;98350.88;;;12.32;96.03
78741;BME280;68062;48.726;9.370;2023-05-15T05:25:17;98347.38;;;12.36;95.35
78741;BME280;68062;48.726;9.370;2023-05-15T05:27:44;98334.38;;;12.44;93.32
78741;BME280;68062;48.726;9.370;2023-05-15T05:30:11;98348.88;;;12.50;93.68
78741;BME280;68062;48.726;9.370;2023-05-15T05:32:38;98307.81;;;12.38;92.20
78741;BME280;68062;48.726;9.370;2023-05-15T05:35:04;98350.13;;;12.79;92.39
78741;BME280;68062;48.726;9.370;2023-05-15T05:37:32;98343.84;;;12.92;91.26
78741;BME280;68062;48.726;9.370;2023-05-15T05:39:59;98346.31;;;12.99;90.31
78741;BME280;68062;48.726;9.370;2023-05-15T05:42:26;98345.44;;;13.00;89.09
78741;BME280;68062;48.726;9.370;2023-05-15T05:44:52;98340.22;;;13.03;91.29
78741;BME280;68062;48.726;9.370;2023-05-15T05:47:19;98336.16;;;12.91;89.18
78741;BME280;68062;48.726;9.370;2023-05-15T05:49:46;98340.03;;;12.65;90.94
78741;BME280;68062;48.726;9.370;2023-05-15T05:52:12;98325.59;;;12.55;92.63
78741;BME280;68062;48.726;9.370;2023-05-15T05:54:41;98335.56;;;12.76;91.34
78741;BME280;68062;48.726;9.370;2023-05-15T05:57:10;98341.38;;;12.86;90.37
78741;BME280;68062;48.726;9.370;2023-05-15T05:59:36;98326.78;;;12.85;91.16
78741;BME280;68062;48.726;9.370;2023-05-15T06:02:03;98332.81;;;12.86;92.40
78741;BME280;68062;48.726;9.370;2023-05-15T06:04:30;98320.31;;;13.09;91.85
78741;BME280;68062;48.726;9.370;2023-05-15T06:06:57;98334.84;;;12.66;93.98
78741;BME280;68062;48.726;9.370;2023-05-15T06:09:23;98328.91;;;13.12;89.53
78741;BME280;68062;48.726;9.370;2023-05-15T06:11:51;98330.13;;;12.90;92.74
78741;BME280;68062;48.726;9.370;2023-05-15T06:14:19;98305.63;;;13.13;90.06
78741;BME280;68062;48.726;9.370;2023-05-15T06:16:45;98330.53;;;13.60;87.68
78741;BME280;68062;48.726;9.370;2023-05-15T06:19:12;98326.75;;;13.75;87.70
78741;BME280;68062;48.726;9.370;2023-05-15T06:21:38;98339.22;;;13.96;85.44
78741;BME280;68062;48.726;9.370;2023-05-15T06:24:05;98321.47;;;13.81;85.94
78741;BME280;68062;48.726;9.370;2023-05-15T06:26:32;98340.19;;;14.30;84.56
78741;BME280;68062;48.726;9.370;2023-05-15T06:29:00;98338.13;;;14.45;82.21
78741;BME280;68062;48.726;9.370;2023-05-15T06:31:27;98341.47;;;14.84;79.62
78741;BME280;68062;48.726;9.370;2023-05-15T06:33:53;98330.59;;;14.70;80.33
78741;BME280;68062;48.726;9.370;2023-05-15T06:36:20;98339.22;;;14.70;80.39
78741;BME280;68062;48.726;9.370;2023-05-15T06:38:46;98337.16;;;14.83;80.71
78741;BME280;68062;48.726;9.370;2023-05-15T06:41:13;98333.38;;;14.97;77.95
78741;BME280;68062;48.726;9.370;2023-05-15T06:43:39;98343.59;;;14.67;82.62
78741;BME280;68062;48.726;9.370;2023-05-15T06:46:07;98335.56;;;15.11;78.45
78741;BME280;68062;48.726;9.370;2023-05-15T06:48:34;98338.59;;;14.59;80.74
78741;BME280;68062;48.726;9.370;2023-05-15T06:51:01;98341.56;;;14.80;80.26
78741;BME280;68062;48.726;9.370;2023-05-15T06:53:28;98324.88;;;14.57;81.87
78741;BME280;68062;48.726;9.370;2023-05-15T06:55:55;98344.16;;;15.13;78.96
78741;BME280;68062;48.726;9.370;2023-05-15T06:58:23;98329.72;;;15.66;79.03
78741;BME280;68062;48.726;9.370;2023-05-15T07:00:49;98335.72;;;15.98;75.94
78741;BME280;68062;48.726;9.370;2023-05-15T07:03:17;98336.78;;;16.19;73.37
78741;BME280;68062;48.726;9.370;2023-05-15T07:05:44;98340.13;;;17.03;69.79
78741;BME280;68062;48.726;9.370;2023-05-15T07:08:10;98329.56;;;17.56;67.36
78741;BME280;68062;48.726;9.370;2023-05-15T07:10:37;98336.34;;;17.84;66.37
78741;BME280;68062;48.726;9.370;2023-05-15T07:13:04;98327.56;;;19.15;61.90
78741;BME280;68062;48.726;9.370;2023-05-15T07:15:31;98322.34;;;19.15;62.71
78741;BME280;68062;48.726;9.370;2023-05-15T07:17:57;98328.94;;;18.82;63.01
78741;BME280;68062;48.726;9.370;2023-05-15T07:20:26;98332.47;;;16.46;71.22
78741;BME280;68062;48.726;9.370;2023-05-15T07:22:52;98332.56;;;16.70;69.36
78741;BME280;68062;48.726;9.370;2023-05-15T07:25:19;98323.91;;;17.90;67.54
78741;BME280;68062;48.726;9.370;2023-05-15T07:27:45;98324.13;;;19.34;62.92
78741;BME280;68062;48.726;9.370;2023-05-15T07:30:12;98324.50;;;18.64;63.07
78741;BME280;68062;48.726;9.370;2023-05-15T07:35:55;98321.75;;;18.46;65.09
78741;BME280;68062;48.726;9.370;2023-05-15T07:38:22;98317.84;;;18.57;63.28
78741;BME280;68062;48.726;9.370;2023-05-15T07:40:48;98312.25;;;18.66;62.91
78741;BME280;68062;48.726;9.370;2023-05-15T07:43:15;98313.31;;;18.82;63.04
78741;BME280;68062;48.726;9.370;2023-05-15T07:45:42;98320.66;;;19.14;62.68
78741;BME280;68062;48.726;9.370;2023-05-15T07:48:16;98317.25;;;19.12;60.77
78741;BME280;68062;48.726;9.370;2023-05-15T07:50:43;98324.94;;;17.86;65.48
78741;BME280;68062;48.726;9.370;2023-05-15T07:53:12;98310.22;;;18.73;65.83
78741;BME280;68062;48.726;9.370;2023-05-15T07:55:42;98294.91;;;19.65;61.06
78741;BME280;68062;48.726;9.370;2023-05-15T07:58:09;98305.75;;;19.94;59.93
78741;BME280;68062;48.726;9.370;2023-05-15T08:00:36;98297.59;;;18.84;61.75
78741;BME280;68062;48.726;9.370;2023-05-15T08:03:03;98307.03;;;19.66;61.02
78741;BME280;68062;48.726;9.370;2023-05-15T08:05:29;98296.72;;;19.82;58.86
78741;BME280;68062;48.726;9.370;2023-05-15T08:07:56;98301.59;;;19.90;61.42
78741;BME280;68062;48.726;9.370;2023-05-15T08:10:24;98303.50;;;20.58;56.90
78741;BME280;68062;48.726;9.370;2023-05-15T08:12:50;98262.63;;;19.30;59.74
78741;BME280;68062;48.726;9.370;2023-05-15T08:15:17;98299.97;;;20.24;59.18
78741;BME280;68062;48.726;9.370;2023-05-15T08:17:44;98299.31;;;20.56;56.66
78741;BME280;68062;48.726;9.370;2023-05-15T08:20:12;98297.03;;;20.13;57.93
78741;BME280;68062;48.726;9.370;2023-05-15T08:22:39;98299.56;;;19.00;59.76
78741;BME280;68062;48.726;9.370;2023-05-15T08:25:06;98291.66;;;19.60;59.70
78741;BME280;68062;48.726;9.370;2023-05-15T08:27:34;98290.69;;;20.54;56.12
78741;BME280;68062;48.726;9.370;2023-05-15T08:30:01;98295.31;;;19.94;57.51
78741;BME280;68062;48.726;9.370;2023-05-15T08:32:28;98288.13;;;20.35;57.74
78741;BME280;68062;48.726;9.370;2023-05-15T08:34:55;98289.13;;;21.02;53.20
78741;BME280;68062;48.726;9.370;2023-05-15T08:37:22;98282.16;;;20.68;52.53
78741;BME280;68062;48.726;9.370;2023-05-15T08:39:49;98285.03;;;20.09;57.25
78741;BME280;68062;48.726;9.370;2023-05-15T08:42:19;98289.75;;;19.83;55.33
78741;BME280;68062;48.726;9.370;2023-05-15T08:44:48;98294.97;;;19.25;56.71
78741;BME280;68062;48.726;9.370;2023-05-15T08:47:15;98290.72;;;19.80;55.04
78741;BME280;68062;48.726;9.370;2023-05-15T08:49:50;98278.78;;;21.17;53.03
78741;BME280;68062;48.726;9.370;2023-05-15T08:52:19;98277.25;;;21.79;51.96
78741;BME280;68062;48.726;9.370;2023-05-15T08:54:45;98281.69;;;19.88;54.87
78741;BME280;68062;48.726;9.370;2023-05-15T08:57:14;98280.47;;;18.37;56.96
78741;BME280;68062;48.726;9.370;2023-05-15T08:59:42;98275.94;;;17.98;58.65
78741;BME280;68062;48.726;9.370;2023-05-15T09:02:11;98282.28;;;16.98;61.85
78741;BME280;68062;48.726;9.370;2023-05-15T09:04:38;98270.22;;;17.21;61.33
78741;BME280;68062;48.726;9.370;2023-05-15T09:07:04;98271.22;;;18.30;60.08
78741;BME280;68062;48.726;9.370;2023-05-15T09:09:32;98263.97;;;19.38;56.95
78741;BME280;68062;48.726;9.370;2023-05-15T09:11:59;98267.38;;;19.01;58.79
78741;BME280;68062;48.726;9.370;2023-05-15T09:14:26;98263.69;;;19.06;59.02
78741;BME280;68062;48.726;9.370;2023-05-15T09:16:53;98256.94;;;20.67;53.98
78741;BME280;68062;48.726;9.370;2023-05-15T09:19:22;98256.03;;;21.51;51.09
78741;BME280;68062;48.726;9.370;2023-05-15T09:21:49;98245.09;;;22.23;48.26
78741;BME280;68062;48.726;9.370;2023-05-15T09:24:18;98245.84;;;21.63;49.75
78741;BME280;68062;48.726;9.370;2023-05-15T09:26:48;98249.91;;;20.34;54.23
78741;BME280;68062;48.726;9.370;2023-05-15T09:29:26;98249.75;;;18.45;58.96
78741;BME280;68062;48.726;9.370;2023-05-15T09:31:54;98252.09;;;18.72;59.77
78741;BME280;68062;48.726;9.370;2023-05-15T09:34:29;98247.91;;;18.49;60.56
78741;BME280;68062;48.726;9.370;2023-05-15T09:36:56;98237.69;;;18.84;58.19
78741;BME280;68062;48.726;9.370;2023-05-15T09:39:22;98238.84;;;18.77;59.29
78741;BME280;68062;48.726;9.370;2023-05-15T09:41:49;98246.28;;;20.01;58.18
78741;BME280;68062;48.726;9.370;2023-05-15T09:44:23;98233.69;;;22.08;50.66
78741;BME280;68062;48.726;9.370;2023-05-15T09:46:51;98224.50;;;22.01;49.02
78741;BME280;68062;48.726;9.370;2023-05-15T09:49:18;98225.19;;;23.51;46.61
78741;BME280;68062;48.726;9.370;2023-05-15T09:51:47;98221.88;;;22.76;47.33
78741;BME280;68062;48.726;9.370;2023-05-15T09:54:16;98218.41;;;21.22;51.69
78741;BME280;68062;48.726;9.370;2023-05-15T09:56:43;98220.13;;;20.89;52.31
78741;BME280;68062;48.726;9.370;2023-05-15T09:59:12;98178.06;;;22.04;48.71
78741;BME280;68062;48.726;9.370;2023-05-15T10:01:41;98219.81;;;22.22;48.59
78741;BME280;68062;48.726;9.370;2023-05-15T10:04:10;98222.63;;;21.40;51.63
78741;BME280;68062;48.726;9.370;2023-05-15T10:06:39;98224.72;;;21.01;49.17
78741;BME280;68062;48.726;9.370;2023-05-15T10:09:08;98212.34;;;22.00;49.28
78741;BME280;68062;48.726;9.370;2023-05-15T10:11:36;98215.09;;;21.50;47.76
78741;BME280;68062;48.726;9.370;2023-05-15T10:14:04;98214.47;;;20.81;50.41
78741;BME280;68062;48.726;9.370;2023-05-15T10:16:33;98209.38;;;18.36;57.09
78741;BME280;68062;48.726;9.370;2023-05-15T10:19:02;98217.75;;;18.43;57.05
78741;BME280;68062;48.726;9.370;2023-05-15T10:21:30;98219.66;;;18.40;59.30
78741;BME280;68062;48.726;9.370;2023-05-15T10:23:58;98224.81;;;18.60;62.94
78741;BME280;68062;48.726;9.370;2023-05-15T10:26:34;98212.34;;;18.48;63.33
78741;BME280;68062;48.726;9.370;2023-05-15T10:29:04;98203.53;;;19.11;61.82
78741;BME280;68062;48.726;9.370;2023-05-15T10:31:32;98203.63;;;20.20;59.47
78741;BME280;68062;48.726;9.370;2023-05-15T10:34:00;98202.63;;;20.73;56.48
78741;BME280;68062;48.726;9.370;2023-05-15T10:36:28;98197.22;;;21.10;54.10
78741;BME280;68062;48.726;9.370;2023-05-15T10:38:57;98195.13;;;21.65;51.01
78741;BME280;68062;48.726;9.370;2023-05-15T10:41:25;98190.78;;;23.56;47.67
78741;BME280;68062;48.726;9.370;2023-05-15T10:43:54;98189.88;;;23.42;46.31
78741;BME280;68062;48.726;9.370;2023-05-15T10:46:23;98183.41;;;22.77;47.62
78741;BME280;68062;48.726;9.370;2023-05-15T10:48:50;98180.13;;;23.44;46.34
78741;BME280;68062;48.726;9.370;2023-05-15T10:51:23;98184.47;;;23.31;47.67
78741;BME280;68062;48.726;9.370;2023-05-15T10:53:50;98172.34;;;22.86;47.41
78741;BME280;68062;48.726;9.370;2023-05-15T10:56:17;98165.53;;;23.68;45.02
78741;BME280;68062;48.726;9.370;2023-05-15T10:58:45;98176.03;;;20.32;49.07
78741;BME280;68062;48.726;9.370;2023-05-15T11:01:27;98175.44;;;19.54;50.39
78741;BME280;68062;48.726;9.370;2023-05-15T11:04:10;98179.72;;;18.79;52.96
78741;BME280;68062;48.726;9.370;2023-05-15T11:06:38;98182.09;;;19.43;52.89
78741;BME280;68062;48.726;9.370;2023-05-15T11:09:33;98177.25;;;20.76;50.12
78741;BME280;68062;48.726;9.370;2023-05-15T11:12:01;98166.78;;;21.41;49.25
78741;BME280;68062;48.726;9.370;2023-05-15T11:14:30;98169.53;;;21.54;46.34
78741;BME280;68062;48.726;9.370;2023-05-15T11:16:59;98167.63;;;21.26;47.81
78741;BME280;68062;48.726;9.370;2023-05-15T11:19:33;98163.31;;;20.59;45.85
78741;BME280;68062;48.726;9.370;2023-05-15T11:22:01;98159.28;;;20.36;46.67
78741;BME280;68062;48.726;9.370;2023-05-15T11:24:29;98158.81;;;19.57;49.60
78741;BME280;68062;48.726;9.370;2023-05-15T11:27:00;98153.22;;;19.28;51.39
78741;BME280;68062;48.726;9.370;2023-05-15T11:29:27;98154.66;;;20.07;52.65
78741;BME280;68062;48.726;9.370;2023-05-15T11:31:54;98133.66;;;20.26;49.30
78741;BME280;68062;48.726;9.370;2023-05-15T11:34:31;98139.97;;;18.94;52.82
78741;BME280;68062;48.726;9.370;2023-05-15T11:36:59;98147.69;;;19.17;54.09
78741;BME280;68062;48.726;9.370;2023-05-15T11:39:26;98144.97;;;19.18;52.05
78741;BME280;68062;48.726;9.370;2023-05-15T11:41:53;98134.44;;;20.62;49.94
78741;BME280;68062;48.726;9.370;2023-05-15T11:44:21;98125.50;;;22.67;42.71
78741;BME280;68062;48.726;9.370;2023-05-15T11:46:48;98134.38;;;23.21;41.33
78741;BME280;68062;48.726;9.370;2023-05-15T11:49:17;98116.97;;;24.65;39.98
78741;BME280;68062;48.726;9.370;2023-05-15T11:51:46;98119.38;;;23.91;39.52
78741;BME280;68062;48.726;9.370;2023-05-15T11:54:13;98127.75;;;22.44;43.17
78741;BME280;68062;48.726;9.370;2023-05-15T11:56:41;98128.47;;;22.61;44.11
78741;BME280;68062;48.726;9.370;2023-05-15T11:59:11;98135.97;;;19.97;49.48
78741;BME280;68062;48.726;9.370;2023-05-15T12:01:39;98138.34;;;19.84;50.11
78741;BME280;68062;48.726;9.370;2023-05-15T12:04:13;98126.09;;;20.71;47.65
78741;BME280;68062;48.726;9.370;2023-05-15T12:06:40;98134.25;;;21.61;47.48
78741;BME280;68062;48.726;9.370;2023-05-15T12:09:13;98128.59;;;23.16;43.19
78741;BME280;68062;48.726;9.370;2023-05-15T12:11:47;98132.44;;;22.96;40.64
78741;BME280;68062;48.726;9.370;2023-05-15T12:14:13;98133.19;;;22.98;41.79
78741;BME280;68062;48.726;9.370;2023-05-15T12:16:40;98131.84;;;23.74;40.98
78741;BME280;68062;48.726;9.370;2023-05-15T12:19:07;98121.78;;;23.94;39.39
78741;BME280;68062;48.726;9.370;2023-05-15T12:21:35;98116.00;;;22.07;42.92
78741;BME280;68062;48.726;9.370;2023-05-15T12:24:09;98125.03;;;21.24;44.08
78741;BME280;68062;48.726;9.370;2023-05-15T12:26:38;98111.56;;;20.16;47.44
78741;BME280;68062;48.726;9.370;2023-05-15T12:29:05;98140.56;;;19.57;47.36
78741;BME280;68062;48.726;9.370;2023-05-15T12:31:33;98146.19;;;19.11;49.12
78741;BME280;68062;48.726;9.370;2023-05-15T12:34:00;98140.97;;;18.92;50.22
78741;BME280;68062;48.726;9.370;2023-05-15T12:36:27;98146.50;;;19.41;52.12
78741;BME280;68062;48.726;9.370;2023-05-15T12:38:55;98144.31;;;19.69;49.16
78741;BME280;68062;48.726;9.370;2023-05-15T12:41:25;98142.53;;;20.73;45.97
78741;BME280;68062;48.726;9.370;2023-05-15T12:43:54;98133.13;;;22.41;42.71
78741;BME280;68062;48.726;9.370;2023-05-15T12:46:21;98140.56;;;21.11;41.76
78741;BME280;68062;48.726;9.370;2023-05-15T12:48:49;98137.53;;;20.53;44.93
78741;BME280;68062;48.726;9.370;2023-05-15T12:51:16;98135.03;;;20.67;44.81
78741;BME280;68062;48.726;9.370;2023-05-15T12:53:43;98134.84;;;20.03;47.84
78741;BME280;68062;48.726;9.370;2023-05-15T12:56:14;98138.13;;;19.89;50.47
78741;BME280;68062;48.726;9.370;2023-05-15T12:58:42;98129.59;;;20.21;49.59
78741;BME280;68062;48.726;9.370;2023-05-15T13:01:10;98143.13;;;20.11;50.09
78741;BME280;68062;48.726;9.370;2023-05-15T13:03:37;98137.88;;;20.29;47.39
78741;BME280;68062;48.726;9.370;2023-05-15T13:06:04;98090.75;;;21.44;45.62
78741;BME280;68062;48.726;9.370;2023-05-15T13:08:31;98139.41;;;22.53;42.02
78741;BME280;68062;48.726;9.370;2023-05-15T13:10:58;98138.25;;;23.01;42.17